createdAt,value
2022-11-18T00:01:34.910Z,99588.72
2022-11-18T00:04:05.986Z,99581.75
2022-11-18T00:06:34.923Z,99595.25
2022-11-18T00:09:06.947Z,99591.44
2022-11-18T00:11:54.205Z,99596.22
2022-11-18T00:14:27.744Z,99608.50
2022-11-18T00:17:01.540Z,99620.91
2022-11-18T00:19:36.105Z,99621.06
2022-11-18T00:22:06.818Z,99616.72
2022-11-18T00:24:39.215Z,99624.06
2022-11-18T00:27:22.350Z,99628.94
2022-11-18T00:29:51.993Z,99639.72
2022-11-18T00:35:09.805Z,99649.66
2022-11-18T00:37:43.371Z,99651.16
2022-11-18T00:40:15.170Z,99638.50
2022-11-18T00:42:52.007Z,99646.03
2022-11-18T00:45:36.992Z,99648.81
2022-11-18T00:48:08.046Z,99648.94
2022-11-18T00:50:41.462Z,99645.59
2022-11-18T00:53:12.291Z,99648.00
2022-11-18T00:55:41.445Z,99654.28
2022-11-18T00:58:25.760Z,99662.09
2022-11-18T01:00:54.473Z,99659.47
2022-11-18T01:03:25.624Z,99662.19
2022-11-18T01:05:54.674Z,99654.59
2022-11-18T01:08:26.007Z,99668.88
2022-11-18T01:11:15.882Z,99667.69
2022-11-18T01:13:43.394Z,99667.66
2022-11-18T01:16:12.592Z,99680.31
2022-11-18T01:18:42.428Z,99683.53
2022-11-18T01:21:11.322Z,99691.22
2022-11-18T01:23:39.719Z,99684.19
2022-11-18T01:26:11.154Z,99692.94
2022-11-18T01:28:43.180Z,99696.03
2022-11-18T01:31:16.378Z,99704.97
2022-11-18T01:33:49.098Z,99697.50
2022-11-18T01:36:22.155Z,99714.03
2022-11-18T01:38:56.061Z,99702.66
2022-11-18T01:41:28.465Z,99714.31
2022-11-18T01:44:02.343Z,99719.88
2022-11-18T01:46:32.786Z,99723.38
2022-11-18T01:49:09.361Z,99742.34
2022-11-18T01:51:46.448Z,99731.84
2022-11-18T01:54:20.692Z,99730.88
2022-11-18T01:57:08.390Z,99729.25
2022-11-18T01:59:41.399Z,99734.44
2022-11-18T02:02:15.672Z,99737.84
2022-11-18T02:04:50.408Z,99734.63
2022-11-18T02:07:23.280Z,99732.09
2022-11-18T02:09:54.099Z,99729.00
2022-11-18T02:12:24.002Z,99732.25
2022-11-18T02:14:53.938Z,99736.31
2022-11-18T02:17:37.995Z,99731.00
2022-11-18T02:20:37.278Z,99739.09
2022-11-18T02:23:47.643Z,99742.50
2022-11-18T02:27:18.586Z,99748.66
2022-11-18T02:30:04.907Z,99742.59
2022-11-18T02:32:47.093Z,99746.09
2022-11-18T02:35:23.288Z,99747.47
2022-11-18T02:37:58.650Z,99747.94
2022-11-18T02:40:29.437Z,99753.44
2022-11-18T02:43:08.859Z,99751.38
2022-11-18T02:45:44.231Z,99746.25
2022-11-18T02:48:14.619Z,99755.00
2022-11-18T02:50:47.496Z,99764.38
2022-11-18T02:53:23.093Z,99754.66
2022-11-18T02:55:57.851Z,99761.16
2022-11-18T02:58:29.679Z,99762.09
2022-11-18T03:01:04.639Z,99770.56
2022-11-18T03:03:36.440Z,99777.47
2022-11-18T03:06:13.810Z,99777.38
2022-11-18T03:08:49.074Z,99780.78
2022-11-18T03:11:26.139Z,99788.72
2022-11-18T03:17:38.082Z,99790.75
2022-11-18T03:20:19.873Z,99782.53
2022-11-18T03:26:00.119Z,99796.75
2022-11-18T03:28:36.908Z,99790.22
2022-11-18T03:31:13.106Z,99804.22
2022-11-18T03:33:47.573Z,99811.63
2022-11-18T03:36:20.456Z,99809.44
2022-11-18T03:38:54.968Z,99806.78
2022-11-18T03:41:31.055Z,99811.16
2022-11-18T03:44:06.083Z,99823.69
2022-11-18T03:46:40.779Z,99813.53
2022-11-18T03:49:13.082Z,99819.31
2022-11-18T03:51:45.878Z,99822.75
2022-11-18T03:54:21.385Z,99833.44
2022-11-18T03:56:58.807Z,99827.00
2022-11-18T03:59:33.093Z,99832.34
2022-11-18T04:02:07.770Z,99832.78
2022-11-18T04:04:36.726Z,99833.84
2022-11-18T04:07:11.421Z,99840.16
2022-11-18T04:09:47.553Z,99848.19
2022-11-18T04:12:21.307Z,99851.50
2022-11-18T04:14:55.326Z,99849.66
2022-11-18T04:17:27.900Z,99855.69
2022-11-18T04:19:56.222Z,99856.75
2022-11-18T04:22:24.883Z,99867.00
2022-11-18T04:24:53.916Z,99870.56
2022-11-18T04:27:24.536Z,99868.00
2022-11-18T04:29:54.947Z,99870.09
2022-11-18T04:32:23.288Z,99869.16
2022-11-18T04:34:51.630Z,99877.84
2022-11-18T04:37:20.224Z,99881.31
2022-11-18T04:39:48.535Z,99879.56
2022-11-18T04:42:16.731Z,99882.00
2022-11-18T04:44:46.465Z,99878.56
2022-11-18T04:47:15.437Z,99888.41
2022-11-18T04:49:43.859Z,99890.00
2022-11-18T04:52:12.269Z,99894.41
2022-11-18T04:54:40.477Z,99888.91
2022-11-18T04:57:09.024Z,99900.56
2022-11-18T04:59:37.639Z,99904.53
2022-11-18T05:02:07.527Z,99910.53
2022-11-18T05:04:36.280Z,99914.25
2022-11-18T05:07:07.977Z,99905.00
2022-11-18T05:09:37.077Z,99916.53
2022-11-18T05:12:42.034Z,99922.75
2022-11-18T05:16:11.931Z,99906.19
2022-11-18T05:18:44.830Z,99919.59
2022-11-18T05:21:47.250Z,99927.50
2022-11-18T05:32:02.846Z,99940.84
2022-11-18T05:34:48.263Z,99952.25
2022-11-18T05:37:22.589Z,99950.00
2022-11-18T05:39:51.007Z,99946.16
2022-11-18T05:42:45.085Z,99957.69
2022-11-18T05:45:13.629Z,99962.06
2022-11-18T05:47:55.992Z,99972.38
2022-11-18T05:50:26.591Z,99961.84
2022-11-18T05:52:55.175Z,99964.34
2022-11-18T05:55:26.988Z,99968.94
2022-11-18T05:57:55.338Z,99970.16
2022-11-18T06:00:24.150Z,99976.13
2022-11-18T06:03:04.041Z,99973.19
2022-11-18T06:05:34.324Z,99970.59
2022-11-18T06:08:06.356Z,99980.13
2022-11-18T06:10:37.721Z,99973.94
2022-11-18T06:13:13.158Z,99989.91
2022-11-18T06:15:46.276Z,100000.44
2022-11-18T06:18:23.391Z,99994.31
2022-11-18T06:21:01.083Z,99997.31
2022-11-18T06:23:32.441Z,100003.00
2022-11-18T06:26:01.030Z,99994.91
2022-11-18T06:28:30.901Z,100014.78
2022-11-18T06:30:59.371Z,100010.69
2022-11-18T06:33:27.763Z,100023.38
2022-11-18T06:35:57.650Z,100027.78
2022-11-18T06:38:26.444Z,100021.50
2022-11-18T06:40:55.077Z,100033.41
2022-11-18T06:43:43.212Z,100024.34
2022-11-18T06:46:32.234Z,100029.53
2022-11-18T06:49:01.704Z,100039.50
2022-11-18T06:51:33.884Z,100049.84
2022-11-18T06:54:07.480Z,100044.19
2022-11-18T06:56:38.953Z,100059.91
2022-11-18T06:59:07.853Z,100051.38
2022-11-18T07:01:39.382Z,100063.81
2022-11-18T07:04:07.989Z,100062.00
2022-11-18T07:06:40.125Z,100073.28
2022-11-18T07:09:09.433Z,100073.63
2022-11-18T07:11:40.441Z,100064.22
2022-11-18T07:14:09.637Z,100086.88
2022-11-18T07:16:38.484Z,100086.88
2022-11-18T07:19:11.855Z,100087.19
2022-11-18T07:21:43.365Z,100084.22
2022-11-18T07:24:15.628Z,100095.63
2022-11-18T07:26:45.131Z,100088.75
2022-11-18T07:29:13.526Z,100097.06
2022-11-18T07:31:42.588Z,100106.44
2022-11-18T07:34:11.396Z,100107.53
2022-11-18T07:36:41.302Z,100111.84
2022-11-18T07:39:10.504Z,100113.69
2022-11-18T07:41:41.383Z,100112.88
2022-11-18T07:44:13.497Z,100129.63
2022-11-18T07:46:42.728Z,100131.28
2022-11-18T07:49:13.294Z,100138.69
2022-11-18T07:51:43.322Z,100143.34
2022-11-18T07:54:16.595Z,100149.94
2022-11-18T07:56:45.741Z,100165.09
2022-11-18T07:59:15.362Z,100153.91
2022-11-18T08:01:43.972Z,100150.56
2022-11-18T08:04:13.925Z,100165.22
2022-11-18T08:06:44.227Z,100158.28
2022-11-18T08:09:13.303Z,100156.47
2022-11-18T08:11:42.035Z,100151.84
2022-11-18T08:14:10.744Z,100171.94
2022-11-18T08:16:39.293Z,100175.66
2022-11-18T08:19:08.934Z,100181.38
2022-11-18T08:21:37.687Z,100181.22
2022-11-18T08:24:08.559Z,100172.09
2022-11-18T08:26:37.828Z,100181.91
2022-11-18T08:29:06.877Z,100180.41
2022-11-18T08:31:35.447Z,100186.97
2022-11-18T08:34:08.193Z,100177.13
2022-11-18T08:36:40.367Z,100189.69
2022-11-18T08:39:16.600Z,100187.59
2022-11-18T08:42:24.350Z,100197.09
2022-11-18T08:44:56.130Z,100202.81
2022-11-18T08:47:27.432Z,100202.31
2022-11-18T08:49:57.898Z,100198.06
2022-11-18T08:52:27.299Z,100208.47
2022-11-18T08:54:58.716Z,100207.41
2022-11-18T08:57:28.215Z,100214.13
2022-11-18T08:59:57.111Z,100209.25
2022-11-18T09:02:26.247Z,100213.19
2022-11-18T09:04:56.444Z,100215.88
2022-11-18T09:07:25.744Z,100215.44
2022-11-18T09:09:55.135Z,100228.31
2022-11-18T09:12:25.782Z,100228.16
2022-11-18T09:17:45.453Z,100241.56
2022-11-18T09:20:14.456Z,100243.28
2022-11-18T09:22:42.816Z,100240.81
2022-11-18T09:25:13.297Z,100239.50
2022-11-18T09:27:44.907Z,100240.50
2022-11-18T09:30:14.533Z,100231.41
2022-11-18T09:32:43.928Z,100239.69
2022-11-18T09:35:12.692Z,100245.50
2022-11-18T09:37:41.802Z,100252.09
2022-11-18T09:40:17.867Z,100238.91
2022-11-18T09:43:05.181Z,100250.00
2022-11-18T09:45:40.076Z,100243.59
2022-11-18T09:48:19.505Z,100250.28
2022-11-18T09:50:50.666Z,100247.97
2022-11-18T09:53:24.633Z,100256.94
2022-11-18T09:55:59.412Z,100253.31
2022-11-18T09:58:37.711Z,100259.97
2022-11-18T10:01:16.410Z,100267.13
2022-11-18T10:03:48.417Z,100275.19
2022-11-18T10:06:27.610Z,100282.16
2022-11-18T10:09:26.141Z,100281.53
2022-11-18T10:12:14.760Z,100277.91
2022-11-18T10:15:21.178Z,100276.03
2022-11-18T10:18:00.883Z,100281.72
2022-11-18T10:20:41.391Z,100275.31
2022-11-18T10:23:18.660Z,100286.69
2022-11-18T10:25:47.790Z,100288.16
2022-11-18T10:28:22.508Z,100282.19
2022-11-18T10:30:53.700Z,100298.16
2022-11-18T10:33:31.085Z,100310.16
2022-11-18T10:36:29.212Z,100293.88
2022-11-18T10:39:14.475Z,100298.69
2022-11-18T10:41:53.477Z,100299.66
2022-11-18T10:44:44.639Z,100301.88
2022-11-18T10:47:44.156Z,100299.31
2022-11-18T10:50:35.037Z,100288.94
2022-11-18T10:53:04.875Z,100293.78
2022-11-18T10:55:35.532Z,100289.59
2022-11-18T10:58:11.735Z,100295.59
2022-11-18T11:00:47.677Z,100285.50
2022-11-18T11:03:36.717Z,100284.25
2022-11-18T11:06:34.882Z,100284.22
2022-11-18T11:09:10.630Z,100287.19
2022-11-18T11:11:43.544Z,100288.56
2022-11-18T11:14:27.765Z,100268.72
2022-11-18T11:17:10.613Z,100278.81
2022-11-18T11:19:51.521Z,100278.63
2022-11-18T11:22:20.660Z,100288.44
2022-11-18T11:24:49.053Z,100291.63
2022-11-18T11:30:43.660Z,100305.91
2022-11-18T11:33:27.600Z,100296.00
2022-11-18T11:36:28.883Z,100302.59
2022-11-18T11:39:06.317Z,100314.47
2022-11-18T11:41:46.873Z,100313.38
2022-11-18T11:44:33.253Z,100321.56
2022-11-18T11:47:39.022Z,100321.56
2022-11-18T11:50:18.477Z,100320.03
2022-11-18T11:53:05.511Z,100330.22
2022-11-18T11:55:45.043Z,100331.31
2022-11-18T11:58:35.816Z,100331.22
2022-11-18T12:01:14.654Z,100337.81
2022-11-18T12:03:52.032Z,100333.19
2022-11-18T12:06:21.759Z,100339.88
2022-11-18T12:09:06.209Z,100340.66
2022-11-18T12:11:41.860Z,100337.09
2022-11-18T12:14:19.805Z,100342.31
2022-11-18T12:16:56.541Z,100343.81
2022-11-18T12:19:25.598Z,100349.66
2022-11-18T12:22:03.925Z,100346.88
2022-11-18T12:24:39.420Z,100355.22
2022-11-18T12:27:14.939Z,100359.19
2022-11-18T12:29:55.889Z,100357.47
2022-11-18T12:32:36.276Z,100358.50
2022-11-18T12:35:27.414Z,100354.41
2022-11-18T12:38:02.449Z,100347.25
2022-11-18T12:40:47.225Z,100359.81
2022-11-18T12:44:06.463Z,100365.97
2022-11-18T12:46:52.825Z,100359.34
2022-11-18T12:50:15.060Z,100367.19
2022-11-18T12:52:54.949Z,100367.47
2022-11-18T12:55:32.112Z,100366.94
2022-11-18T12:58:02.471Z,100372.13
2022-11-18T13:00:52.448Z,100380.28
2022-11-18T13:03:29.029Z,100374.97
2022-11-18T13:06:13.701Z,100379.78
2022-11-18T13:08:46.650Z,100378.28
2022-11-18T13:11:36.468Z,100377.22
2022-11-18T13:14:32.662Z,100384.47
2022-11-18T13:17:18.519Z,100395.31
2022-11-18T13:19:59.204Z,100394.91
2022-11-18T13:22:45.443Z,100403.38
2022-11-18T13:25:26.091Z,100408.56
2022-11-18T13:28:04.200Z,100400.34
2022-11-18T13:30:38.100Z,100408.00
2022-11-18T13:33:11.938Z,100415.72
2022-11-18T13:35:42.430Z,100414.13
2022-11-18T13:38:27.753Z,100415.97
2022-11-18T13:41:08.268Z,100417.78
2022-11-18T13:43:38.190Z,100418.72
2022-11-18T13:46:16.851Z,100412.44
2022-11-18T13:48:52.917Z,100414.06
2022-11-18T13:51:23.299Z,100405.06
2022-11-18T13:53:52.793Z,100402.66
2022-11-18T13:56:30.247Z,100413.66
2022-11-18T13:59:16.944Z,100413.22
2022-11-18T14:02:01.046Z,100417.22
2022-11-18T14:04:32.951Z,100428.25
2022-11-18T14:07:33.701Z,100425.59
2022-11-18T14:10:07.040Z,100415.53
2022-11-18T14:12:39.348Z,100420.41
2022-11-18T14:15:23.457Z,100431.31
2022-11-18T14:17:59.112Z,100431.09
2022-11-18T14:20:31.016Z,100432.16
2022-11-18T14:23:02.069Z,100440.13
2022-11-18T14:25:33.280Z,100436.84
2022-11-18T14:28:20.371Z,100437.78
2022-11-18T14:31:04.609Z,100437.66
2022-11-18T14:33:37.537Z,100440.75
2022-11-18T14:36:13.599Z,100447.25
2022-11-18T14:39:04.411Z,100448.00
2022-11-18T14:41:48.359Z,100446.78
2022-11-18T14:44:17.440Z,100451.41
2022-11-18T14:46:48.527Z,100462.75
2022-11-18T14:49:22.973Z,100466.06
2022-11-18T14:51:52.859Z,100469.50
2022-11-18T14:54:26.669Z,100463.72
2022-11-18T14:57:03.512Z,100472.50
2022-11-18T14:59:32.453Z,100472.91
2022-11-18T15:02:00.937Z,100470.53
2022-11-18T15:04:31.220Z,100479.66
2022-11-18T15:07:00.067Z,100485.50
2022-11-18T15:09:28.682Z,100487.41
2022-11-18T15:11:57.651Z,100479.97
2022-11-18T15:14:26.280Z,100470.56
2022-11-18T15:16:54.801Z,100483.19
2022-11-18T15:19:23.636Z,100491.00
2022-11-18T15:21:54.004Z,100486.47
2022-11-18T15:24:25.807Z,100486.03
2022-11-18T15:26:56.845Z,100489.25
2022-11-18T15:29:27.035Z,100500.84
2022-11-18T15:31:55.585Z,100493.75
2022-11-18T15:34:29.422Z,100490.75
2022-11-18T15:37:02.010Z,100506.44
2022-11-18T15:39:30.615Z,100509.00
2022-11-18T15:41:59.538Z,100504.94
2022-11-18T15:44:28.637Z,100516.44
2022-11-18T15:46:58.416Z,100509.88
2022-11-18T15:49:26.763Z,100523.63
2022-11-18T15:51:55.213Z,100516.13
2022-11-18T15:54:25.045Z,100516.84
2022-11-18T15:56:53.885Z,100522.78
2022-11-18T15:59:22.749Z,100524.41
2022-11-18T16:01:54.324Z,100525.13
2022-11-18T16:04:23.244Z,100532.91
2022-11-18T16:06:52.042Z,100534.00
2022-11-18T16:09:21.739Z,100535.69
2022-11-18T16:12:10.218Z,100542.06
2022-11-18T16:14:40.029Z,100530.72
2022-11-18T16:17:10.316Z,100537.78
2022-11-18T16:19:39.775Z,100542.56
2022-11-18T16:22:08.230Z,100541.81
2022-11-18T16:24:36.938Z,100545.53
2022-11-18T16:27:07.275Z,100543.72
2022-11-18T16:29:36.411Z,100547.47
2022-11-18T16:32:15.528Z,100542.22
2022-11-18T16:34:44.366Z,100538.38
2022-11-18T16:37:13.477Z,100547.34
2022-11-18T16:39:42.570Z,100552.63
2022-11-18T16:42:14.170Z,100550.81
2022-11-18T16:44:46.186Z,100564.69
2022-11-18T16:47:15.777Z,100559.53
2022-11-18T16:49:45.599Z,100558.88
2022-11-18T16:52:16.340Z,100572.09
2022-11-18T16:54:46.323Z,100571.75
2022-11-18T16:57:16.913Z,100575.22
2022-11-18T16:59:46.259Z,100577.78
2022-11-18T17:02:15.710Z,100581.19
2022-11-18T17:04:44.605Z,100585.94
2022-11-18T17:07:16.266Z,100599.19
2022-11-18T17:09:46.088Z,100608.09
2022-11-18T17:12:18.224Z,100615.84
2022-11-18T17:14:47.192Z,100614.22
2022-11-18T17:17:15.686Z,100609.66
2022-11-18T17:19:44.895Z,100624.25
2022-11-18T17:22:13.637Z,100632.16
2022-11-18T17:24:42.368Z,100640.59
2022-11-18T17:27:10.782Z,100641.78
2022-11-18T17:29:40.994Z,100645.91
2022-11-18T17:32:11.601Z,100642.50
2022-11-18T17:34:39.937Z,100649.63
2022-11-18T17:37:09.064Z,100638.63
2022-11-18T17:39:37.563Z,100640.25
2022-11-18T17:42:15.469Z,100659.59
2022-11-18T17:44:45.516Z,100643.31
2022-11-18T17:47:14.405Z,100647.31
2022-11-18T17:49:43.840Z,100665.66
2022-11-18T17:52:12.365Z,100664.00
2022-11-18T17:54:41.926Z,100671.53
2022-11-18T17:57:10.188Z,100659.78
2022-11-18T17:59:38.785Z,100681.84
2022-11-18T18:02:09.492Z,100681.56
2022-11-18T18:04:39.450Z,100684.06
2022-11-18T18:07:09.317Z,100682.81
2022-11-18T18:09:38.852Z,100695.53
2022-11-18T18:12:21.771Z,100690.53
2022-11-18T18:14:56.380Z,100693.13
2022-11-18T18:17:30.097Z,100691.66
2022-11-18T18:19:58.691Z,100698.28
2022-11-18T18:22:27.338Z,100699.75
2022-11-18T18:24:56.334Z,100703.84
2022-11-18T18:27:25.026Z,100722.69
2022-11-18T18:29:53.846Z,100714.13
2022-11-18T18:32:22.486Z,100714.19
2022-11-18T18:34:52.708Z,100719.97
2022-11-18T18:37:21.733Z,100721.34
2022-11-18T18:39:50.552Z,100726.38
2022-11-18T18:42:18.994Z,100732.38
2022-11-18T18:45:05.162Z,100720.25
2022-11-18T18:47:37.280Z,100733.13
2022-11-18T18:50:08.990Z,100722.31
2022-11-18T18:52:37.883Z,100730.09
2022-11-18T18:55:07.483Z,100742.66
2022-11-18T18:57:36.510Z,100749.44
2022-11-18T19:00:09.013Z,100757.84
2022-11-18T19:02:37.723Z,100752.00
2022-11-18T19:05:09.786Z,100757.50
2022-11-18T19:07:38.860Z,100754.72
2022-11-18T19:10:09.165Z,100759.41
2022-11-18T19:12:52.067Z,100754.78
2022-11-18T19:15:23.187Z,100758.59
2022-11-18T19:17:52.314Z,100775.25
2022-11-18T19:20:39.056Z,100779.13
2022-11-18T19:23:11.028Z,100781.72
2022-11-18T19:25:44.373Z,100778.59
2022-11-18T19:28:13.740Z,100774.66
2022-11-18T19:30:43.660Z,100765.75
2022-11-18T19:33:18.523Z,100782.69
2022-11-18T19:35:48.727Z,100777.84
2022-11-18T19:38:17.366Z,100779.81
2022-11-18T19:40:46.326Z,100784.84
2022-11-18T19:43:36.330Z,100788.72
2022-11-18T19:46:12.274Z,100789.78
2022-11-18T19:48:41.458Z,100800.44
2022-11-18T19:51:19.027Z,100800.19
2022-11-18T19:53:48.617Z,100800.94
2022-11-18T19:56:20.586Z,100811.88
2022-11-18T19:58:50.938Z,100809.72
2022-11-18T20:01:23.622Z,100828.78
2022-11-18T20:03:59.336Z,100825.16
2022-11-18T20:06:33.490Z,100834.28
2022-11-18T20:09:08.837Z,100828.41
2022-11-18T20:11:41.242Z,100833.84
2022-11-18T20:14:16.239Z,100831.97
2022-11-18T20:16:48.550Z,100822.66
2022-11-18T20:19:21.031Z,100840.28
2022-11-18T20:21:56.026Z,100845.31
2022-11-18T20:24:34.207Z,100837.69
2022-11-18T20:27:04.437Z,100856.06
2022-11-18T20:29:37.449Z,100847.53
2022-11-18T20:32:07.267Z,100853.16
2022-11-18T20:34:36.749Z,100863.88
2022-11-18T20:37:07.387Z,100868.28
2022-11-18T20:39:39.867Z,100867.31
2022-11-18T20:42:26.463Z,100880.81
2022-11-18T20:44:55.048Z,100870.06
2022-11-18T20:47:24.999Z,100876.03
2022-11-18T20:49:57.952Z,100881.03
2022-11-18T20:52:31.376Z,100881.44
2022-11-18T20:55:05.486Z,100879.41
2022-11-18T20:57:34.654Z,100891.72
2022-11-18T21:00:04.187Z,100881.56
2022-11-18T21:02:32.869Z,100894.41
2022-11-18T21:05:02.494Z,100890.50
2022-11-18T21:07:36.872Z,100888.09
2022-11-18T21:10:08.121Z,100884.72
2022-11-18T21:12:40.507Z,100892.19
2022-11-18T21:15:13.663Z,100895.69
2022-11-18T21:17:44.034Z,100898.59
2022-11-18T21:20:27.073Z,100904.97
2022-11-18T21:23:02.116Z,100911.84
2022-11-18T21:25:32.227Z,100890.69
2022-11-18T21:28:01.798Z,100914.13
2022-11-18T21:30:31.270Z,100906.63
2022-11-18T21:33:00.356Z,100927.69
2022-11-18T21:35:34.287Z,100931.66
2022-11-18T21:38:06.379Z,100920.94
2022-11-18T21:40:36.223Z,100940.22
2022-11-18T21:43:07.323Z,100937.63
2022-11-18T21:45:36.690Z,100920.63
2022-11-18T21:48:07.675Z,100928.06
2022-11-18T21:50:44.602Z,100925.34
2022-11-18T21:53:24.078Z,100933.75
2022-11-18T21:55:56.426Z,100950.69
2022-11-18T21:58:26.365Z,100951.84
2022-11-18T22:00:55.276Z,100959.44
2022-11-18T22:03:24.190Z,100958.75
2022-11-18T22:06:00.112Z,100967.06
2022-11-18T22:11:20.905Z,100964.06
2022-11-18T22:13:53.898Z,100975.31
2022-11-18T22:16:25.038Z,100968.47
2022-11-18T22:19:03.707Z,100977.78
2022-11-18T22:21:36.816Z,100972.88
2022-11-18T22:24:08.469Z,100964.59
2022-11-18T22:26:37.427Z,100967.53
2022-11-18T22:29:06.904Z,100976.00
2022-11-18T22:31:35.794Z,100965.97
2022-11-18T22:34:04.333Z,100967.31
2022-11-18T22:36:35.433Z,100970.38
2022-11-18T22:39:06.043Z,100972.63
2022-11-18T22:41:54.963Z,100960.38
2022-11-18T22:44:26.383Z,100971.19
2022-11-18T22:46:54.970Z,100965.31
2022-11-18T22:49:24.197Z,100970.28
2022-11-18T22:51:54.103Z,100963.63
2022-11-18T22:54:38.225Z,100976.56
2022-11-18T22:57:10.316Z,100974.81
2022-11-18T22:59:40.535Z,100986.44
2022-11-18T23:02:09.619Z,100979.50
2022-11-18T23:04:38.894Z,100985.31
2022-11-18T23:07:08.419Z,100979.28
2022-11-18T23:09:37.686Z,100989.47
2022-11-18T23:12:24.037Z,100996.50
2022-11-18T23:14:54.317Z,100998.13
2022-11-18T23:17:23.197Z,101000.63
2022-11-18T23:19:51.741Z,100998.03
2022-11-18T23:22:20.003Z,101006.66
2022-11-18T23:24:49.219Z,101007.84
2022-11-18T23:27:18.007Z,101001.59
2022-11-18T23:29:46.750Z,101017.56
2022-11-18T23:32:32.844Z,101014.16
2022-11-18T23:35:02.269Z,101026.94
2022-11-18T23:37:31.168Z,101027.22
2022-11-18T23:40:00.220Z,101026.78
2022-11-18T23:42:28.927Z,101023.50
2022-11-18T23:45:02.291Z,101025.59
2022-11-18T23:47:36.844Z,101023.03
2022-11-18T23:50:06.270Z,101029.56
2022-11-18T23:52:34.986Z,101034.44
2022-11-18T23:55:05.183Z,101033.72
2022-11-18T23:57:34.069Z,101037.72
